sensor_id;sensor_type;location;lat;lon;timestamp;temperature;humidity
12926;DHT22;6529;50.566;9.774;2023-09-30T00:01:09;16.30;99.90
12926;DHT22;6529;50.566;9.774;2023-09-30T00:03:36;16.30;99.90
12926;DHT22;6529;50.566;9.774;2023-09-30T00:06:01;16.20;99.90
12926;DHT22;6529;50.566;9.774;2023-09-30T00:08:27;16.10;99.90
12926;DHT22;6529;50.566;9.774;2023-09-30T00:10:52;16.00;99.90
12926;DHT22;6529;50.566;9.774;2023-09-30T00:13:19;16.00;99.90
12926;DHT22;6529;50.566;9.774;2023-09-30T00:15:45;15.90;99.90
12926;DHT22;6529;50.566;9.774;2023-09-30T00:18:10;15.90;99.90
12926;DHT22;6529;50.566;9.774;2023-09-30T00:20:36;15.80;99.90
12926;DHT22;6529;50.566;9.774;2023-09-30T00:23:01;15.70;99.90
12926;DHT22;6529;50.566;9.774;2023-09-30T00:25:27;15.70;99.90
12926;DHT22;6529;50.566;9.774;2023-09-30T00:27:53;15.70;99.90
12926;DHT22;6529;50.566;9.774;2023-09-30T00:30:18;15.60;99.90
12926;DHT22;6529;50.566;9.774;2023-09-30T00:32:44;15.60;99.90
12926;DHT22;6529;50.566;9.774;2023-09-30T00:35:09;15.50;99.90
12926;DHT22;6529;50.566;9.774;2023-09-30T00:37:40;15.40;99.90
12926;DHT22;6529;50.566;9.774;2023-09-30T00:40:07;15.30;99.90
12926;DHT22;6529;50.566;9.774;2023-09-30T00:42:37;15.20;99.90
12926;DHT22;6529;50.566;9.774;2023-09-30T00:45:04;15.10;99.90
12926;DHT22;6529;50.566;9.774;2023-09-30T00:47:30;15.00;99.90
12926;DHT22;6529;50.566;9.774;2023-09-30T00:49:56;15.00;99.90
12926;DHT22;6529;50.566;9.774;2023-09-30T00:52:22;15.00;99.90
12926;DHT22;6529;50.566;9.774;2023-09-30T00:54:49;15.00;99.90
12926;DHT22;6529;50.566;9.774;2023-09-30T00:57:15;15.00;99.90
12926;DHT22;6529;50.566;9.774;2023-09-30T00:59:41;15.00;99.90
12926;DHT22;6529;50.566;9.774;2023-09-30T01:02:08;15.00;99.90
12926;DHT22;6529;50.566;9.774;2023-09-30T01:04:33;15.00;99.90
12926;DHT22;6529;50.566;9.774;2023-09-30T01:06:59;14.90;99.90
12926;DHT22;6529;50.566;9.774;2023-09-30T01:09:25;14.80;99.90
12926;DHT22;6529;50.566;9.774;2023-09-30T01:11:51;14.90;99.90
12926;DHT22;6529;50.566;9.774;2023-09-30T01:14:30;14.90;99.90
12926;DHT22;6529;50.566;9.774;2023-09-30T01:16:56;15.00;99.90
12926;DHT22;6529;50.566;9.774;2023-09-30T01:19:21;14.90;99.90
12926;DHT22;6529;50.566;9.774;2023-09-30T01:21:54;14.90;99.90
12926;DHT22;6529;50.566;9.774;2023-09-30T01:24:22;14.70;99.90
12926;DHT22;6529;50.566;9.774;2023-09-30T01:26:47;14.60;99.90
12926;DHT22;6529;50.566;9.774;2023-09-30T01:29:14;14.60;99.90
12926;DHT22;6529;50.566;9.774;2023-09-30T01:31:39;14.60;99.90
12926;DHT22;6529;50.566;9.774;2023-09-30T01:34:05;14.50;99.90
12926;DHT22;6529;50.566;9.774;2023-09-30T01:36:31;14.50;99.90
12926;DHT22;6529;50.566;9.774;2023-09-30T01:38:57;14.50;99.90
12926;DHT22;6529;50.566;9.774;2023-09-30T01:41:23;14.30;99.90
12926;DHT22;6529;50.566;9.774;2023-09-30T01:43:49;14.20;99.90
12926;DHT22;6529;50.566;9.774;2023-09-30T01:46:14;14.10;99.90
12926;DHT22;6529;50.566;9.774;2023-09-30T01:48:40;14.00;99.90
12926;DHT22;6529;50.566;9.774;2023-09-30T01:51:06;14.00;99.90
12926;DHT22;6529;50.566;9.774;2023-09-30T01:53:32;14.00;99.90
12926;DHT22;6529;50.566;9.774;2023-09-30T01:55:58;14.00;99.90
12926;DHT22;6529;50.566;9.774;2023-09-30T01:58:23;13.90;99.90
12926;DHT22;6529;50.566;9.774;2023-09-30T02:00:50;13.80;99.90
12926;DHT22;6529;50.566;9.774;2023-09-30T02:03:16;13.50;99.90
12926;DHT22;6529;50.566;9.774;2023-09-30T02:05:42;13.40;99.90
12926;DHT22;6529;50.566;9.774;2023-09-30T02:08:08;13.50;99.90
12926;DHT22;6529;50.566;9.774;2023-09-30T02:10:34;13.40;99.90
12926;DHT22;6529;50.566;9.774;2023-09-30T02:12:59;13.40;99.90
12926;DHT22;6529;50.566;9.774;2023-09-30T02:15:25;13.40;99.90
12926;DHT22;6529;50.566;9.774;2023-09-30T02:17:51;13.30;99.90
12926;DHT22;6529;50.566;9.774;2023-09-30T02:20:17;13.20;99.90
12926;DHT22;6529;50.566;9.774;2023-09-30T02:22:47;13.20;99.90
12926;DHT22;6529;50.566;9.774;2023-09-30T02:25:14;13.20;99.90
12926;DHT22;6529;50.566;9.774;2023-09-30T02:27:41;13.20;99.90
12926;DHT22;6529;50.566;9.774;2023-09-30T02:30:08;13.20;99.90
12926;DHT22;6529;50.566;9.774;2023-09-30T02:32:36;13.30;99.90
12926;DHT22;6529;50.566;9.774;2023-09-30T02:35:02;13.30;99.90
12926;DHT22;6529;50.566;9.774;2023-09-30T02:37:28;13.40;99.90
12926;DHT22;6529;50.566;9.774;2023-09-30T02:39:53;13.50;99.90
12926;DHT22;6529;50.566;9.774;2023-09-30T02:42:19;13.50;99.90
12926;DHT22;6529;50.566;9.774;2023-09-30T02:44:45;13.50;99.90
12926;DHT22;6529;50.566;9.774;2023-09-30T02:47:11;13.30;99.90
12926;DHT22;6529;50.566;9.774;2023-09-30T02:49:37;13.20;99.90
12926;DHT22;6529;50.566;9.774;2023-09-30T02:52:02;13.30;99.90
12926;DHT22;6529;50.566;9.774;2023-09-30T02:54:30;13.30;99.90
12926;DHT22;6529;50.566;9.774;2023-09-30T02:56:56;13.20;99.90
12926;DHT22;6529;50.566;9.774;2023-09-30T02:59:21;13.20;99.90
12926;DHT22;6529;50.566;9.774;2023-09-30T03:01:47;13.30;99.90
12926;DHT22;6529;50.566;9.774;2023-09-30T03:04:13;13.30;99.90
12926;DHT22;6529;50.566;9.774;2023-09-30T03:06:39;13.30;99.90
12926;DHT22;6529;50.566;9.774;2023-09-30T03:09:05;13.40;99.90
12926;DHT22;6529;50.566;9.774;2023-09-30T03:11:31;13.40;99.90
12926;DHT22;6529;50.566;9.774;2023-09-30T03:13:57;13.50;99.90
12926;DHT22;6529;50.566;9.774;2023-09-30T03:16:23;13.40;99.90
12926;DHT22;6529;50.566;9.774;2023-09-30T03:18:50;13.50;99.90
12926;DHT22;6529;50.566;9.774;2023-09-30T03:21:16;13.40;99.90
12926;DHT22;6529;50.566;9.774;2023-09-30T03:23:42;13.40;99.90
12926;DHT22;6529;50.566;9.774;2023-09-30T03:26:08;13.50;99.90
12926;DHT22;6529;50.566;9.774;2023-09-30T03:28:38;13.50;99.90
12926;DHT22;6529;50.566;9.774;2023-09-30T03:31:04;13.50;99.90
12926;DHT22;6529;50.566;9.774;2023-09-30T03:33:33;13.30;99.90
12926;DHT22;6529;50.566;9.774;2023-09-30T03:35:59;13.10;99.90
12926;DHT22;6529;50.566;9.774;2023-09-30T03:38:26;13.10;99.90
12926;DHT22;6529;50.566;9.774;2023-09-30T03:40:52;13.30;99.90
12926;DHT22;6529;50.566;9.774;2023-09-30T03:43:20;13.40;99.90
12926;DHT22;6529;50.566;9.774;2023-09-30T03:45:46;13.50;99.90
12926;DHT22;6529;50.566;9.774;2023-09-30T03:48:12;13.50;99.90
12926;DHT22;6529;50.566;9.774;2023-09-30T03:50:38;13.60;99.90
12926;DHT22;6529;50.566;9.774;2023-09-30T03:53:04;13.50;99.90
12926;DHT22;6529;50.566;9.774;2023-09-30T03:55:30;13.40;99.90
12926;DHT22;6529;50.566;9.774;2023-09-30T03:57:57;13.30;99.90
12926;DHT22;6529;50.566;9.774;2023-09-30T04:00:23;13.20;99.90
12926;DHT22;6529;50.566;9.774;2023-09-30T04:02:50;13.30;99.90
12926;DHT22;6529;50.566;9.774;2023-09-30T04:05:19;13.30;99.90
12926;DHT22;6529;50.566;9.774;2023-09-30T04:07:49;13.40;99.90
12926;DHT22;6529;50.566;9.774;2023-09-30T04:10:15;13.40;99.90
12926;DHT22;6529;50.566;9.774;2023-09-30T04:12:40;13.40;99.90
12926;DHT22;6529;50.566;9.774;2023-09-30T04:15:07;13.40;99.90
12926;DHT22;6529;50.566;9.774;2023-09-30T04:17:32;13.40;99.90
12926;DHT22;6529;50.566;9.774;2023-09-30T04:19:58;13.50;99.90
12926;DHT22;6529;50.566;9.774;2023-09-30T04:22:24;13.40;99.90
12926;DHT22;6529;50.566;9.774;2023-09-30T04:24:51;13.40;99.90
12926;DHT22;6529;50.566;9.774;2023-09-30T04:27:17;13.50;99.90
12926;DHT22;6529;50.566;9.774;2023-09-30T04:29:43;13.50;99.90
12926;DHT22;6529;50.566;9.774;2023-09-30T04:32:09;13.40;99.90
12926;DHT22;6529;50.566;9.774;2023-09-30T04:34:35;13.30;99.90
12926;DHT22;6529;50.566;9.774;2023-09-30T04:37:00;13.40;99.90
12926;DHT22;6529;50.566;9.774;2023-09-30T04:39:27;13.40;99.90
12926;DHT22;6529;50.566;9.774;2023-09-30T04:41:52;13.40;99.90
12926;DHT22;6529;50.566;9.774;2023-09-30T04:44:19;13.40;99.90
12926;DHT22;6529;50.566;9.774;2023-09-30T04:46:44;13.30;99.90
12926;DHT22;6529;50.566;9.774;2023-09-30T04:49:14;13.30;99.90
12926;DHT22;6529;50.566;9.774;2023-09-30T04:51:40;13.20;99.90
12926;DHT22;6529;50.566;9.774;2023-09-30T04:54:06;13.20;99.90
12926;DHT22;6529;50.566;9.774;2023-09-30T04:56:36;13.20;99.90
12926;DHT22;6529;50.566;9.774;2023-09-30T04:59:02;13.10;99.90
12926;DHT22;6529;50.566;9.774;2023-09-30T05:01:28;13.10;99.90
12926;DHT22;6529;50.566;9.774;2023-09-30T05:03:53;13.20;99.90
12926;DHT22;6529;50.566;9.774;2023-09-30T05:06:19;13.10;99.90
12926;DHT22;6529;50.566;9.774;2023-09-30T05:08:45;13.10;99.90
12926;DHT22;6529;50.566;9.774;2023-09-30T05:11:10;13.10;99.90
12926;DHT22;6529;50.566;9.774;2023-09-30T05:13:36;13.00;99.90
12926;DHT22;6529;50.566;9.774;2023-09-30T05:16:02;12.80;99.90
12926;DHT22;6529;50.566;9.774;2023-09-30T05:18:28;12.70;99.90
12926;DHT22;6529;50.566;9.774;2023-09-30T05:20:55;12.50;99.90
12926;DHT22;6529;50.566;9.774;2023-09-30T05:23:20;12.40;99.90
12926;DHT22;6529;50.566;9.774;2023-09-30T05:25:46;12.30;99.90
12926;DHT22;6529;50.566;9.774;2023-09-30T05:28:11;12.30;99.90
12926;DHT22;6529;50.566;9.774;2023-09-30T05:30:39;12.40;99.90
12926;DHT22;6529;50.566;9.774;2023-09-30T05:33:06;12.40;99.90
12926;DHT22;6529;50.566;9.774;2023-09-30T05:35:31;12.50;99.90
12926;DHT22;6529;50.566;9.774;2023-09-30T05:37:57;12.50;99.90
12926;DHT22;6529;50.566;9.774;2023-09-30T05:40:23;12.60;99.90
12926;DHT22;6529;50.566;9.774;2023-09-30T05:42:56;12.60;99.90
12926;DHT22;6529;50.566;9.774;2023-09-30T05:45:30;12.60;99.90
12926;DHT22;6529;50.566;9.774;2023-09-30T05:47:56;12.40;99.90
12926;DHT22;6529;50.566;9.774;2023-09-30T05:50:24;12.40;99.90
12926;DHT22;6529;50.566;9.774;2023-09-30T05:52:51;12.50;99.90
12926;DHT22;6529;50.566;9.774;2023-09-30T05:55:17;12.50;99.90
12926;DHT22;6529;50.566;9.774;2023-09-30T05:57:50;12.60;99.90
12926;DHT22;6529;50.566;9.774;2023-09-30T06:00:16;12.50;99.90
12926;DHT22;6529;50.566;9.774;2023-09-30T06:03:08;12.50;99.90
12926;DHT22;6529;50.566;9.774;2023-09-30T06:05:33;12.50;99.90
12926;DHT22;6529;50.566;9.774;2023-09-30T06:08:03;12.60;99.90
12926;DHT22;6529;50.566;9.774;2023-09-30T06:10:30;12.50;99.90
12926;DHT22;6529;50.566;9.774;2023-09-30T06:12:56;12.50;99.90
12926;DHT22;6529;50.566;9.774;2023-09-30T06:15:23;12.50;99.90
12926;DHT22;6529;50.566;9.774;2023-09-30T06:17:52;12.60;99.90
12926;DHT22;6529;50.566;9.774;2023-09-30T06:20:19;12.70;99.90
12926;DHT22;6529;50.566;9.774;2023-09-30T06:22:45;12.70;99.90
12926;DHT22;6529;50.566;9.774;2023-09-30T06:25:14;12.80;99.90
12926;DHT22;6529;50.566;9.774;2023-09-30T06:27:47;12.80;99.90
12926;DHT22;6529;50.566;9.774;2023-09-30T06:30:14;12.70;99.90
12926;DHT22;6529;50.566;9.774;2023-09-30T06:32:41;12.70;99.90
12926;DHT22;6529;50.566;9.774;2023-09-30T06:35:07;12.60;99.90
12926;DHT22;6529;50.566;9.774;2023-09-30T06:37:36;12.60;99.90
12926;DHT22;6529;50.566;9.774;2023-09-30T06:40:02;12.60;99.90
12926;DHT22;6529;50.566;9.774;2023-09-30T06:42:30;12.60;99.90
12926;DHT22;6529;50.566;9.774;2023-09-30T06:44:56;12.70;99.90
12926;DHT22;6529;50.566;9.774;2023-09-30T06:47:22;12.70;99.90
12926;DHT22;6529;50.566;9.774;2023-09-30T06:49:49;12.80;99.90
12926;DHT22;6529;50.566;9.774;2023-09-30T06:52:15;12.70;99.90
12926;DHT22;6529;50.566;9.774;2023-09-30T06:54:40;12.70;99.90
12926;DHT22;6529;50.566;9.774;2023-09-30T06:57:06;12.80;99.90
12926;DHT22;6529;50.566;9.774;2023-09-30T06:59:34;12.80;99.90
12926;DHT22;6529;50.566;9.774;2023-09-30T07:02:00;12.70;99.90
12926;DHT22;6529;50.566;9.774;2023-09-30T07:04:25;12.70;99.90
12926;DHT22;6529;50.566;9.774;2023-09-30T07:06:53;12.70;99.90
12926;DHT22;6529;50.566;9.774;2023-09-30T07:09:18;12.80;99.90
12926;DHT22;6529;50.566;9.774;2023-09-30T07:11:45;12.80;99.90
12926;DHT22;6529;50.566;9.774;2023-09-30T07:14:11;12.90;99.90
12926;DHT22;6529;50.566;9.774;2023-09-30T07:16:37;12.90;99.90
12926;DHT22;6529;50.566;9.774;2023-09-30T07:19:02;13.00;99.90
12926;DHT22;6529;50.566;9.774;2023-09-30T07:21:28;13.00;99.90
12926;DHT22;6529;50.566;9.774;2023-09-30T07:23:54;13.10;99.90
12926;DHT22;6529;50.566;9.774;2023-09-30T07:26:24;13.20;99.90
12926;DHT22;6529;50.566;9.774;2023-09-30T07:28:50;13.20;99.90
12926;DHT22;6529;50.566;9.774;2023-09-30T07:31:15;13.30;99.90
12926;DHT22;6529;50.566;9.774;2023-09-30T07:33:41;13.30;99.90
12926;DHT22;6529;50.566;9.774;2023-09-30T07:36:06;13.40;99.90
12926;DHT22;6529;50.566;9.774;2023-09-30T07:38:32;13.50;99.90
12926;DHT22;6529;50.566;9.774;2023-09-30T07:41:00;13.60;99.90
12926;DHT22;6529;50.566;9.774;2023-09-30T07:43:27;13.60;99.90
12926;DHT22;6529;50.566;9.774;2023-09-30T07:45:53;13.60;99.90
12926;DHT22;6529;50.566;9.774;2023-09-30T07:48:19;13.70;99.90
12926;DHT22;6529;50.566;9.774;2023-09-30T07:50:44;13.90;99.90
12926;DHT22;6529;50.566;9.774;2023-09-30T07:53:10;14.00;99.90
12926;DHT22;6529;50.566;9.774;2023-09-30T07:55:37;14.00;99.90
12926;DHT22;6529;50.566;9.774;2023-09-30T07:58:03;14.20;99.90
12926;DHT22;6529;50.566;9.774;2023-09-30T08:00:28;14.20;26.20
12926;DHT22;6529;50.566;9.774;2023-09-30T08:02:54;14.30;1.00
12926;DHT22;6529;50.566;9.774;2023-09-30T08:05:20;14.50;1.00
12926;DHT22;6529;50.566;9.774;2023-09-30T08:07:45;14.60;1.00
12926;DHT22;6529;50.566;9.774;2023-09-30T08:10:11;14.70;1.00
12926;DHT22;6529;50.566;9.774;2023-09-30T08:12:42;14.80;1.00
12926;DHT22;6529;50.566;9.774;2023-09-30T08:15:11;14.90;24.90
12926;DHT22;6529;50.566;9.774;2023-09-30T08:17:40;15.10;1.00
12926;DHT22;6529;50.566;9.774;2023-09-30T08:20:06;15.30;1.00
12926;DHT22;6529;50.566;9.774;2023-09-30T08:22:32;15.50;1.00
12926;DHT22;6529;50.566;9.774;2023-09-30T08:24:58;15.50;99.90
12926;DHT22;6529;50.566;9.774;2023-09-30T08:27:24;15.50;1.00
12926;DHT22;6529;50.566;9.774;2023-09-30T08:29:50;15.50;99.90
12926;DHT22;6529;50.566;9.774;2023-09-30T08:32:15;15.70;1.00
12926;DHT22;6529;50.566;9.774;2023-09-30T08:34:41;15.90;1.00
12926;DHT22;6529;50.566;9.774;2023-09-30T08:37:07;16.20;1.00
12926;DHT22;6529;50.566;9.774;2023-09-30T08:39:38;16.30;1.00
12926;DHT22;6529;50.566;9.774;2023-09-30T08:42:08;16.30;1.00
12926;DHT22;6529;50.566;9.774;2023-09-30T08:44:35;16.30;99.90
12926;DHT22;6529;50.566;9.774;2023-09-30T08:47:01;16.40;36.90
12926;DHT22;6529;50.566;9.774;2023-09-30T08:49:27;16.30;99.90
12926;DHT22;6529;50.566;9.774;2023-09-30T08:51:54;16.10;99.90
12926;DHT22;6529;50.566;9.774;2023-09-30T08:54:22;15.90;75.80
12926;DHT22;6529;50.566;9.774;2023-09-30T08:56:49;16.00;1.00
12926;DHT22;6529;50.566;9.774;2023-09-30T08:59:15;16.30;1.00
12926;DHT22;6529;50.566;9.774;2023-09-30T09:01:40;16.60;1.00
12926;DHT22;6529;50.566;9.774;2023-09-30T09:04:07;16.60;1.00
12926;DHT22;6529;50.566;9.774;2023-09-30T09:06:32;16.30;1.00
12926;DHT22;6529;50.566;9.774;2023-09-30T09:09:24;16.30;1.00
12926;DHT22;6529;50.566;9.774;2023-09-30T09:11:49;16.60;1.00
12926;DHT22;6529;50.566;9.774;2023-09-30T09:14:16;17.00;1.00
12926;DHT22;6529;50.566;9.774;2023-09-30T09:16:53;17.30;1.00
12926;DHT22;6529;50.566;9.774;2023-09-30T09:19:18;17.30;1.00
12926;DHT22;6529;50.566;9.774;2023-09-30T09:21:55;17.20;99.90
12926;DHT22;6529;50.566;9.774;2023-09-30T09:29:33;17.10;99.90
12926;DHT22;6529;50.566;9.774;2023-09-30T09:32:11;17.20;1.00
12926;DHT22;6529;50.566;9.774;2023-09-30T09:34:38;17.30;99.90
12926;DHT22;6529;50.566;9.774;2023-09-30T09:37:20;17.70;99.90
12926;DHT22;6529;50.566;9.774;2023-09-30T09:39:53;17.80;1.00
12926;DHT22;6529;50.566;9.774;2023-09-30T09:42:32;18.10;99.90
12926;DHT22;6529;50.566;9.774;2023-09-30T09:45:00;18.30;99.90
12926;DHT22;6529;50.566;9.774;2023-09-30T09:47:29;18.60;1.00
12926;DHT22;6529;50.566;9.774;2023-09-30T09:49:57;18.60;76.80
12926;DHT22;6529;50.566;9.774;2023-09-30T09:52:24;18.80;99.90
12926;DHT22;6529;50.566;9.774;2023-09-30T09:54:51;18.90;99.90
12926;DHT22;6529;50.566;9.774;2023-09-30T09:57:18;19.10;19.40
12926;DHT22;6529;50.566;9.774;2023-09-30T09:59:47;19.10;1.00
12926;DHT22;6529;50.566;9.774;2023-09-30T10:02:14;19.10;99.90
12926;DHT22;6529;50.566;9.774;2023-09-30T10:04:41;19.00;1.00
12926;DHT22;6529;50.566;9.774;2023-09-30T10:07:11;19.10;99.90
12926;DHT22;6529;50.566;9.774;2023-09-30T10:09:41;19.10;99.90
12926;DHT22;6529;50.566;9.774;2023-09-30T10:12:10;18.90;1.00
12926;DHT22;6529;50.566;9.774;2023-09-30T10:14:35;19.10;99.90
12926;DHT22;6529;50.566;9.774;2023-09-30T10:17:02;19.40;1.00
12926;DHT22;6529;50.566;9.774;2023-09-30T10:19:29;19.60;1.00
12926;DHT22;6529;50.566;9.774;2023-09-30T10:24:43;19.50;99.90
12926;DHT22;6529;50.566;9.774;2023-09-30T10:40:48;19.50;99.90
12926;DHT22;6529;50.566;9.774;2023-09-30T10:43:39;19.80;1.00
12926;DHT22;6529;50.566;9.774;2023-09-30T10:48:53;20.00;1.00
12926;DHT22;6529;50.566;9.774;2023-09-30T10:51:19;20.20;99.90
12926;DHT22;6529;50.566;9.774;2023-09-30T10:53:49;20.50;99.90
12926;DHT22;6529;50.566;9.774;2023-09-30T10:56:17;20.70;1.00
12926;DHT22;6529;50.566;9.774;2023-09-30T11:01:16;21.00;1.00
12926;DHT22;6529;50.566;9.774;2023-09-30T11:03:43;20.80;1.00
12926;DHT22;6529;50.566;9.774;2023-09-30T11:06:13;21.00;1.00
12926;DHT22;6529;50.566;9.774;2023-09-30T11:08:54;21.00;99.90
12926;DHT22;6529;50.566;9.774;2023-09-30T11:11:38;20.90;1.00
12926;DHT22;6529;50.566;9.774;2023-09-30T11:14:27;21.20;1.00
12926;DHT22;6529;50.566;9.774;2023-09-30T11:16:55;21.30;1.00
12926;DHT22;6529;50.566;9.774;2023-09-30T11:19:22;21.50;1.00
12926;DHT22;6529;50.566;9.774;2023-09-30T11:21:53;21.30;99.90
12926;DHT22;6529;50.566;9.774;2023-09-30T11:24:20;21.70;1.00
12926;DHT22;6529;50.566;9.774;2023-09-30T11:26:46;21.90;1.00
12926;DHT22;6529;50.566;9.774;2023-09-30T11:29:12;21.80;1.00
12926;DHT22;6529;50.566;9.774;2023-09-30T11:31:39;21.40;99.90
12926;DHT22;6529;50.566;9.774;2023-09-30T11:34:05;21.30;99.90
12926;DHT22;6529;50.566;9.774;2023-09-30T11:36:34;21.00;99.90
12926;DHT22;6529;50.566;9.774;2023-09-30T11:39:00;20.90;99.90
12926;DHT22;6529;50.566;9.774;2023-09-30T11:41:39;20.80;99.90
12926;DHT22;6529;50.566;9.774;2023-09-30T11:44:10;21.10;99.90
12926;DHT22;6529;50.566;9.774;2023-09-30T11:46:51;21.70;1.00
12926;DHT22;6529;50.566;9.774;2023-09-30T11:51:59;21.80;2.20
12926;DHT22;6529;50.566;9.774;2023-09-30T11:54:32;21.80;99.90
12926;DHT22;6529;50.566;9.774;2023-09-30T11:57:00;22.30;99.90
12926;DHT22;6529;50.566;9.774;2023-09-30T11:59:26;22.70;1.00
12926;DHT22;6529;50.566;9.774;2023-09-30T12:01:52;22.40;1.00
12926;DHT22;6529;50.566;9.774;2023-09-30T12:04:18;22.40;1.00
12926;DHT22;6529;50.566;9.774;2023-09-30T12:06:48;22.30;1.00
12926;DHT22;6529;50.566;9.774;2023-09-30T12:09:16;22.70;1.00
12926;DHT22;6529;50.566;9.774;2023-09-30T12:11:48;22.70;1.00
12926;DHT22;6529;50.566;9.774;2023-09-30T12:14:13;22.30;1.00
12926;DHT22;6529;50.566;9.774;2023-09-30T12:16:39;22.60;1.00
12926;DHT22;6529;50.566;9.774;2023-09-30T12:19:06;22.10;1.00
12926;DHT22;6529;50.566;9.774;2023-09-30T12:21:32;21.60;1.00
12926;DHT22;6529;50.566;9.774;2023-09-30T12:24:00;21.80;1.00
12926;DHT22;6529;50.566;9.774;2023-09-30T12:26:25;22.30;1.00
12926;DHT22;6529;50.566;9.774;2023-09-30T12:28:51;22.50;1.00
12926;DHT22;6529;50.566;9.774;2023-09-30T12:31:17;22.90;1.00
12926;DHT22;6529;50.566;9.774;2023-09-30T12:33:43;23.00;1.00
12926;DHT22;6529;50.566;9.774;2023-09-30T12:36:09;23.50;99.90
12926;DHT22;6529;50.566;9.774;2023-09-30T12:38:35;23.40;99.90
12926;DHT22;6529;50.566;9.774;2023-09-30T12:41:00;22.70;99.90
12926;DHT22;6529;50.566;9.774;2023-09-30T12:43:26;22.60;99.90
12926;DHT22;6529;50.566;9.774;2023-09-30T12:45:51;23.30;99.90
12926;DHT22;6529;50.566;9.774;2023-09-30T12:48:17;23.60;99.90
12926;DHT22;6529;50.566;9.774;2023-09-30T12:50:46;24.20;99.90
12926;DHT22;6529;50.566;9.774;2023-09-30T12:53:11;24.30;99.90
12926;DHT22;6529;50.566;9.774;2023-09-30T12:55:37;24.40;99.90
12926;DHT22;6529;50.566;9.774;2023-09-30T12:58:03;24.50;99.90
12926;DHT22;6529;50.566;9.774;2023-09-30T13:00:31;24.60;99.90
12926;DHT22;6529;50.566;9.774;2023-09-30T13:02:58;24.10;99.90
12926;DHT22;6529;50.566;9.774;2023-09-30T13:05:24;24.20;99.90
12926;DHT22;6529;50.566;9.774;2023-09-30T13:07:51;24.30;99.90
12926;DHT22;6529;50.566;9.774;2023-09-30T13:10:18;24.60;99.90
12926;DHT22;6529;50.566;9.774;2023-09-30T13:12:44;24.70;99.90
12926;DHT22;6529;50.566;9.774;2023-09-30T13:15:10;24.70;99.90
12926;DHT22;6529;50.566;9.774;2023-09-30T13:17:35;24.70;99.90
12926;DHT22;6529;50.566;9.774;2023-09-30T13:20:01;24.50;99.90
12926;DHT22;6529;50.566;9.774;2023-09-30T13:22:30;24.40;99.90
12926;DHT22;6529;50.566;9.774;2023-09-30T13:24:57;24.50;99.90
12926;DHT22;6529;50.566;9.774;2023-09-30T13:27:22;24.60;99.90
12926;DHT22;6529;50.566;9.774;2023-09-30T13:29:48;25.00;99.90
12926;DHT22;6529;50.566;9.774;2023-09-30T13:32:13;25.40;99.90
12926;DHT22;6529;50.566;9.774;2023-09-30T13:34:39;25.50;99.90
12926;DHT22;6529;50.566;9.774;2023-09-30T13:37:06;25.70;99.90
12926;DHT22;6529;50.566;9.774;2023-09-30T13:39:31;25.70;99.90
12926;DHT22;6529;50.566;9.774;2023-09-30T13:41:59;25.60;99.90
12926;DHT22;6529;50.566;9.774;2023-09-30T13:44:24;25.30;99.90
12926;DHT22;6529;50.566;9.774;2023-09-30T13:46:50;24.40;99.90
12926;DHT22;6529;50.566;9.774;2023-09-30T13:49:16;23.80;99.90
12926;DHT22;6529;50.566;9.774;2023-09-30T13:51:43;24.00;99.90
12926;DHT22;6529;50.566;9.774;2023-09-30T13:54:08;23.90;99.90
12926;DHT22;6529;50.566;9.774;2023-09-30T13:56:34;23.70;99.90
12926;DHT22;6529;50.566;9.774;2023-09-30T13:58:59;23.70;99.90
12926;DHT22;6529;50.566;9.774;2023-09-30T14:01:25;24.00;99.90
12926;DHT22;6529;50.566;9.774;2023-09-30T14:03:52;23.80;99.90
12926;DHT22;6529;50.566;9.774;2023-09-30T14:06:21;24.20;99.90
12926;DHT22;6529;50.566;9.774;2023-09-30T14:08:46;24.70;99.90
12926;DHT22;6529;50.566;9.774;2023-09-30T14:11:12;25.20;99.90
12926;DHT22;6529;50.566;9.774;2023-09-30T14:13:38;25.50;99.90
12926;DHT22;6529;50.566;9.774;2023-09-30T14:16:05;25.40;99.90
12926;DHT22;6529;50.566;9.774;2023-09-30T14:18:30;25.00;99.90
12926;DHT22;6529;50.566;9.774;2023-09-30T14:20:56;25.30;99.90
12926;DHT22;6529;50.566;9.774;2023-09-30T14:23:22;25.10;99.90
12926;DHT22;6529;50.566;9.774;2023-09-30T14:25:49;25.00;99.90
12926;DHT22;6529;50.566;9.774;2023-09-30T14:28:14;25.00;99.90
12926;DHT22;6529;50.566;9.774;2023-09-30T14:30:40;25.20;99.90
12926;DHT22;6529;50.566;9.774;2023-09-30T14:33:06;25.40;99.90
12926;DHT22;6529;50.566;9.774;2023-09-30T14:35:34;25.30;99.90
12926;DHT22;6529;50.566;9.774;2023-09-30T14:38:00;24.80;99.90
12926;DHT22;6529;50.566;9.774;2023-09-30T14:40:26;24.30;99.90
12926;DHT22;6529;50.566;9.774;2023-09-30T14:42:52;24.20;99.90
12926;DHT22;6529;50.566;9.774;2023-09-30T14:45:18;24.30;99.90
12926;DHT22;6529;50.566;9.774;2023-09-30T14:47:43;24.50;99.90
12926;DHT22;6529;50.566;9.774;2023-09-30T14:50:09;24.40;99.90
12926;DHT22;6529;50.566;9.774;2023-09-30T14:52:35;24.20;99.90
12926;DHT22;6529;50.566;9.774;2023-09-30T14:55:00;24.00;99.90
12926;DHT22;6529;50.566;9.774;2023-09-30T14:57:26;24.10;99.90
12926;DHT22;6529;50.566;9.774;2023-09-30T14:59:51;24.10;99.90
12926;DHT22;6529;50.566;9.774;2023-09-30T15:02:17;24.10;99.90
12926;DHT22;6529;50.566;9.774;2023-09-30T15:04:43;23.90;99.90
12926;DHT22;6529;50.566;9.774;2023-09-30T15:07:08;23.60;99.90
12926;DHT22;6529;50.566;9.774;2023-09-30T15:09:34;23.20;99.90
12926;DHT22;6529;50.566;9.774;2023-09-30T15:12:00;22.90;99.90
12926;DHT22;6529;50.566;9.774;2023-09-30T15:14:26;23.00;99.90
12926;DHT22;6529;50.566;9.774;2023-09-30T15:16:52;23.10;99.90
12926;DHT22;6529;50.566;9.774;2023-09-30T15:19:17;23.10;99.90
12926;DHT22;6529;50.566;9.774;2023-09-30T15:21:43;22.80;99.90
12926;DHT22;6529;50.566;9.774;2023-09-30T15:24:09;22.60;99.90
12926;DHT22;6529;50.566;9.774;2023-09-30T15:26:36;22.40;99.90
12926;DHT22;6529;50.566;9.774;2023-09-30T15:29:01;22.30;99.90
12926;DHT22;6529;50.566;9.774;2023-09-30T15:31:31;22.20;99.90
12926;DHT22;6529;50.566;9.774;2023-09-30T15:33:57;22.10;99.90
12926;DHT22;6529;50.566;9.774;2023-09-30T15:36:23;22.00;99.90
12926;DHT22;6529;50.566;9.774;2023-09-30T15:38:49;22.10;99.90
12926;DHT22;6529;50.566;9.774;2023-09-30T15:41:20;22.00;99.90
12926;DHT22;6529;50.566;9.774;2023-09-30T15:43:47;21.90;99.90
12926;DHT22;6529;50.566;9.774;2023-09-30T15:46:13;21.80;99.90
12926;DHT22;6529;50.566;9.774;2023-09-30T15:48:40;21.60;99.90
12926;DHT22;6529;50.566;9.774;2023-09-30T15:51:05;21.40;1.00
12926;DHT22;6529;50.566;9.774;2023-09-30T15:53:31;21.30;99.90
12926;DHT22;6529;50.566;9.774;2023-09-30T15:56:02;21.20;1.00
12926;DHT22;6529;50.566;9.774;2023-09-30T15:58:27;21.10;1.00
12926;DHT22;6529;50.566;9.774;2023-09-30T16:00:54;20.80;99.90
12926;DHT22;6529;50.566;9.774;2023-09-30T16:03:20;20.60;14.90
12926;DHT22;6529;50.566;9.774;2023-09-30T16:05:46;20.60;1.00
12926;DHT22;6529;50.566;9.774;2023-09-30T16:08:12;20.30;1.00
12926;DHT22;6529;50.566;9.774;2023-09-30T16:10:38;20.20;41.10
12926;DHT22;6529;50.566;9.774;2023-09-30T16:13:05;20.00;99.90
12926;DHT22;6529;50.566;9.774;2023-09-30T16:15:37;19.80;99.90
12926;DHT22;6529;50.566;9.774;2023-09-30T16:18:03;19.70;1.00